Woodbury, Indiana
Current Conditions -  °F | °C
As of 6:35 AM on Friday 31 Oct 2014 (Local Time) from KMQJ Reporting Station
Overcast Overcast  
Wind Chill: 40°   Ceiling: 6500
Heat Index: 43°   Visibility: 5mi
Dew Point: 36°   Wind: 5mph
Humidity: 76%   Direction: 300°WNW
Pressure: 29.99"   Gusts: NA
Location:  39.9249°N, 85.9217°W
Report Text: KMQJ 311035Z AUTO 30004KT 5SM OVC065 06/02 A2999 RMK AO1
Loading
Personal Weather Stations






























Interactive Weather Map
Tropical Storm Tracking
New forecast layout! Learn more

10-Day Weather Forecast

Advertisements
Track Severe Weather on mobile